Barton Mills, United Kingdom
Current Conditions -  °F | °C
As of 7:58 AM on Friday 24 Oct 2014 (Local Time) from EGUN Reporting Station
Overcast Overcast  
Wind Chill: 57°   Ceiling: 1800
Heat Index: 57°   Visibility: 6mi
Dew Point: 57°   Wind: 10mph
Humidity: 100%   Direction: 220°SW
Pressure: 29.94"   Gusts: NA
Location:  52.33°N, 0.53°E
Report Text: EGUN 240658Z AUTO 22009KT 9999 OVC018 14/14 A2994 RMK AO2 SLP142 T01380138 $
Loading
Personal Weather Stations






























Interactive Weather Map
Tropical Storm Tracking
New forecast layout! Learn more

10-Day Weather Forecast

Advertisements
Track Severe Weather on mobile